createdAt,value
2019-03-22T00:00:34.507Z,11.43
2019-03-22T00:03:02.486Z,11.70
2019-03-22T00:05:30.290Z,12.40
2019-03-22T00:07:58.143Z,12.13
2019-03-22T00:10:26.056Z,11.33
2019-03-22T00:12:53.955Z,11.33
2019-03-22T00:15:21.872Z,10.80
2019-03-22T00:17:49.704Z,9.63
2019-03-22T00:20:17.567Z,10.13
2019-03-22T00:22:45.373Z,13.60
2019-03-22T00:25:13.163Z,11.37
2019-03-22T00:27:40.999Z,12.07
2019-03-22T00:30:09.003Z,12.00
2019-03-22T00:32:36.914Z,11.90
2019-03-22T00:35:05.782Z,14.93
2019-03-22T00:37:33.605Z,13.40
2019-03-22T00:40:01.435Z,12.60
2019-03-22T00:42:29.299Z,11.93
2019-03-22T00:44:57.092Z,13.53
2019-03-22T00:47:25.173Z,14.43
2019-03-22T00:49:53.004Z,13.53
2019-03-22T00:52:20.820Z,13.17
2019-03-22T00:54:48.655Z,13.00
2019-03-22T00:57:27.693Z,13.93
2019-03-22T00:59:46.161Z,15.47
2019-03-22T01:02:14.042Z,15.43
2019-03-22T01:04:41.835Z,16.17
2019-03-22T01:07:09.707Z,13.67
2019-03-22T01:09:37.505Z,12.07
2019-03-22T01:12:05.347Z,15.00
2019-03-22T01:14:33.207Z,14.03
2019-03-22T01:17:01.050Z,14.00
2019-03-22T01:19:28.839Z,14.30
2019-03-22T01:21:56.669Z,15.17
2019-03-22T01:24:24.468Z,13.60
2019-03-22T01:26:52.269Z,15.00
2019-03-22T01:29:20.138Z,15.30
2019-03-22T01:31:47.948Z,15.10
2019-03-22T01:34:15.760Z,16.50
2019-03-22T01:36:43.615Z,13.80
2019-03-22T01:39:11.423Z,13.83
2019-03-22T01:41:39.267Z,14.00
2019-03-22T01:44:07.103Z,12.90
2019-03-22T01:46:34.917Z,14.67
2019-03-22T01:49:02.802Z,12.80
2019-03-22T01:51:30.607Z,11.77
2019-03-22T01:53:58.394Z,11.90
2019-03-22T01:56:26.235Z,13.93
2019-03-22T01:58:54.026Z,13.53
2019-03-22T02:01:21.906Z,14.87
2019-03-22T02:03:49.714Z,14.67
2019-03-22T02:06:17.541Z,15.67
2019-03-22T02:08:45.324Z,16.10
2019-03-22T02:11:13.155Z,15.63
2019-03-22T02:13:40.962Z,16.97
2019-03-22T02:16:08.865Z,17.13
2019-03-22T02:18:36.955Z,16.10
2019-03-22T02:21:04.794Z,17.63
2019-03-22T02:23:32.601Z,18.43
2019-03-22T02:26:00.417Z,17.70
2019-03-22T02:28:28.204Z,18.77
2019-03-22T02:30:56.029Z,17.70
2019-03-22T02:33:23.837Z,19.90
2019-03-22T02:35:51.640Z,18.30
2019-03-22T02:38:19.412Z,18.03
2019-03-22T02:40:47.263Z,17.13
2019-03-22T02:43:15.170Z,17.13
2019-03-22T02:45:42.956Z,18.30
2019-03-22T02:48:10.783Z,17.00
2019-03-22T02:50:38.707Z,17.57
2019-03-22T02:53:06.532Z,16.50
2019-03-22T02:55:34.371Z,17.60
2019-03-22T02:58:02.179Z,18.67
2019-03-22T03:00:29.964Z,17.50
2019-03-22T03:02:57.815Z,18.57
2019-03-22T03:05:25.721Z,18.30
2019-03-22T03:07:53.545Z,18.27
2019-03-22T03:10:21.358Z,17.10
2019-03-22T03:12:49.186Z,19.43
2019-03-22T03:15:17.730Z,20.30
2019-03-22T03:17:45.738Z,19.60
2019-03-22T03:20:14.715Z,21.77
2019-03-22T03:22:42.599Z,19.57
2019-03-22T03:25:10.796Z,19.60
2019-03-22T03:27:38.584Z,22.00
2019-03-22T03:30:10.101Z,21.40
2019-03-22T03:32:37.950Z,23.87
2019-03-22T03:35:06.247Z,23.07
2019-03-22T03:37:34.077Z,24.77
2019-03-22T03:40:01.869Z,24.67
2019-03-22T03:42:29.761Z,26.73
2019-03-22T03:44:57.588Z,25.90
2019-03-22T03:47:25.412Z,24.00
2019-03-22T03:49:53.268Z,21.27
2019-03-22T03:52:21.095Z,23.20
2019-03-22T03:54:48.932Z,24.20
2019-03-22T03:57:16.706Z,23.03
2019-03-22T03:59:44.534Z,23.53
2019-03-22T04:02:12.376Z,26.20
2019-03-22T04:04:40.238Z,25.17
2019-03-22T04:07:08.052Z,23.17
2019-03-22T04:09:35.820Z,24.87
2019-03-22T04:12:03.664Z,25.17
2019-03-22T04:14:31.457Z,28.67
2019-03-22T04:16:59.298Z,28.83
2019-03-22T04:19:27.121Z,28.30
2019-03-22T04:21:54.945Z,27.93
2019-03-22T04:24:22.762Z,26.97
2019-03-22T04:26:50.626Z,28.53
2019-03-22T04:29:18.416Z,26.07
2019-03-22T04:31:46.211Z,24.93
2019-03-22T04:34:14.099Z,26.67
2019-03-22T04:36:41.916Z,31.07
2019-03-22T04:39:09.693Z,27.07
2019-03-22T04:41:37.529Z,30.50
2019-03-22T04:44:05.395Z,30.77
2019-03-22T04:46:34.090Z,27.07
2019-03-22T04:49:02.068Z,26.20
2019-03-22T04:51:30.597Z,26.50
2019-03-22T04:54:03.132Z,25.73
2019-03-22T04:56:33.527Z,29.13
2019-03-22T04:59:04.224Z,26.93
2019-03-22T05:01:33.005Z,28.33
2019-03-22T05:04:02.669Z,27.13
2019-03-22T05:06:31.972Z,24.40
2019-03-22T05:09:00.654Z,25.80
2019-03-22T05:11:29.166Z,27.07
2019-03-22T05:14:00.506Z,24.93
2019-03-22T05:16:29.571Z,26.73
2019-03-22T05:19:00.165Z,25.30
2019-03-22T05:21:29.272Z,24.77
2019-03-22T05:24:01.124Z,25.80
2019-03-22T05:26:30.696Z,28.03
2019-03-22T05:28:59.427Z,27.27
2019-03-22T05:31:39.110Z,26.00
2019-03-22T05:34:06.975Z,27.50
2019-03-22T05:36:34.769Z,25.63
2019-03-22T05:39:04.705Z,26.90
2019-03-22T05:41:32.525Z,30.17
2019-03-22T05:44:00.348Z,29.03
2019-03-22T05:46:28.175Z,27.43
2019-03-22T05:48:56.138Z,27.53
2019-03-22T05:51:23.970Z,28.97
2019-03-22T05:53:51.796Z,29.67
2019-03-22T05:56:19.613Z,32.70
2019-03-22T05:58:47.414Z,30.90
2019-03-22T06:01:15.260Z,28.37
2019-03-22T06:03:43.097Z,31.37
2019-03-22T06:06:10.975Z,30.17
2019-03-22T06:08:38.830Z,31.00
2019-03-22T06:11:06.654Z,29.13
2019-03-22T06:13:34.537Z,30.80
2019-03-22T06:16:02.369Z,27.70
2019-03-22T06:18:30.168Z,29.63
2019-03-22T06:20:57.996Z,31.10
2019-03-22T06:23:25.791Z,29.90
2019-03-22T06:25:53.598Z,27.70
2019-03-22T06:28:21.399Z,33.57
2019-03-22T06:30:49.167Z,31.10
2019-03-22T06:33:17.000Z,32.67
2019-03-22T06:35:44.776Z,30.73
2019-03-22T06:38:12.544Z,32.97
2019-03-22T06:40:40.405Z,31.80
2019-03-22T06:43:08.185Z,31.83
2019-03-22T06:45:35.987Z,33.53
2019-03-22T06:48:03.956Z,31.03
2019-03-22T06:50:38.211Z,31.90
2019-03-22T06:53:06.001Z,32.13
2019-03-22T06:55:33.878Z,33.37
2019-03-22T06:58:01.732Z,34.33
2019-03-22T07:00:29.542Z,35.13
2019-03-22T07:02:57.438Z,34.30
2019-03-22T07:05:25.269Z,34.27
2019-03-22T07:07:53.087Z,33.87
2019-03-22T07:10:21.026Z,36.53
2019-03-22T07:12:48.836Z,39.23
2019-03-22T07:15:16.661Z,38.97
2019-03-22T07:17:44.494Z,35.37
2019-03-22T07:20:12.549Z,38.10
2019-03-22T07:22:40.706Z,39.67
2019-03-22T07:25:10.144Z,37.37
2019-03-22T07:27:37.982Z,35.10
2019-03-22T07:30:17.612Z,37.93
2019-03-22T07:32:36.167Z,38.30
2019-03-22T07:35:04.780Z,38.57
2019-03-22T07:37:32.581Z,38.13
2019-03-22T07:40:00.403Z,39.60
2019-03-22T07:42:28.242Z,40.83
2019-03-22T07:44:56.039Z,41.27
2019-03-22T07:47:23.838Z,42.37
2019-03-22T07:49:51.703Z,38.57
2019-03-22T07:52:19.589Z,44.77
2019-03-22T07:54:47.441Z,38.43
2019-03-22T07:57:15.221Z,38.47
2019-03-22T07:59:43.031Z,40.63
2019-03-22T08:02:10.865Z,44.03
2019-03-22T08:04:38.820Z,42.20
2019-03-22T08:07:06.651Z,38.33
2019-03-22T08:09:34.498Z,43.33
2019-03-22T08:12:02.351Z,44.13
2019-03-22T08:14:30.350Z,44.50
2019-03-22T08:17:00.848Z,42.80
2019-03-22T08:19:28.717Z,43.73
2019-03-22T08:21:56.541Z,37.43
2019-03-22T08:24:24.392Z,38.83
2019-03-22T08:26:52.284Z,36.73
2019-03-22T08:29:20.068Z,36.43
2019-03-22T08:31:47.887Z,40.03
2019-03-22T08:34:15.679Z,39.60
2019-03-22T08:36:43.496Z,40.73
2019-03-22T08:39:11.316Z,41.57
2019-03-22T08:41:39.176Z,40.77
2019-03-22T08:44:06.979Z,41.90
2019-03-22T08:46:34.867Z,42.43
2019-03-22T08:49:02.873Z,41.33
2019-03-22T08:51:30.735Z,38.97
2019-03-22T08:53:58.551Z,40.20
2019-03-22T08:56:26.352Z,39.30
2019-03-22T08:58:54.214Z,35.13
2019-03-22T09:01:22.128Z,35.27
2019-03-22T09:03:49.958Z,37.53
2019-03-22T09:06:17.744Z,38.20
2019-03-22T09:08:47.778Z,37.07
2019-03-22T09:11:18.026Z,35.97
2019-03-22T09:13:45.132Z,34.13
2019-03-22T09:16:13.011Z,35.83
2019-03-22T09:18:40.927Z,37.90
2019-03-22T09:21:08.900Z,40.13
2019-03-22T09:23:36.703Z,42.50
2019-03-22T09:26:04.461Z,40.13
2019-03-22T09:28:32.299Z,37.37
2019-03-22T09:31:09.767Z,36.77
2019-03-22T09:33:29.815Z,42.60
2019-03-22T09:35:57.787Z,41.23
2019-03-22T09:38:28.445Z,39.53
2019-03-22T09:40:55.363Z,38.37
2019-03-22T09:43:23.217Z,42.37
2019-03-22T09:45:51.122Z,37.27
2019-03-22T09:48:18.928Z,38.60
2019-03-22T09:50:46.703Z,36.17
2019-03-22T09:53:14.588Z,40.60
2019-03-22T09:55:42.407Z,37.90
2019-03-22T09:58:10.271Z,36.37
2019-03-22T10:00:38.180Z,41.30
2019-03-22T10:03:07.098Z,37.60
2019-03-22T10:05:37.634Z,41.43
2019-03-22T10:08:05.500Z,36.33
2019-03-22T10:10:33.502Z,37.43
2019-03-22T10:13:02.605Z,35.87
2019-03-22T10:15:30.407Z,37.53
2019-03-22T10:17:58.223Z,37.93
2019-03-22T10:20:26.080Z,38.33
2019-03-22T10:22:53.909Z,38.63
2019-03-22T10:25:21.914Z,39.50
2019-03-22T10:27:49.791Z,42.23
2019-03-22T10:30:18.087Z,41.50
2019-03-22T10:32:45.903Z,39.37
2019-03-22T10:35:25.572Z,40.70
2019-03-22T10:37:43.645Z,44.70
2019-03-22T10:40:11.560Z,39.97
2019-03-22T10:42:39.461Z,42.60
2019-03-22T10:45:07.899Z,42.67
2019-03-22T10:47:35.771Z,43.70
2019-03-22T10:50:04.270Z,44.90
2019-03-22T10:52:32.085Z,45.27
2019-03-22T10:55:17.496Z,41.90
2019-03-22T10:57:29.623Z,44.63
2019-03-22T10:59:57.503Z,45.33
2019-03-22T11:02:25.388Z,43.80
2019-03-22T11:04:53.201Z,43.50
2019-03-22T11:07:21.158Z,44.37
2019-03-22T11:09:51.793Z,45.20
2019-03-22T11:12:19.561Z,42.57
2019-03-22T11:14:47.418Z,44.47
2019-03-22T11:17:15.205Z,44.80
2019-03-22T11:19:43.073Z,44.03
2019-03-22T11:22:14.409Z,49.33
2019-03-22T11:24:42.229Z,48.63
2019-03-22T11:27:13.916Z,45.60
2019-03-22T11:29:41.684Z,45.93
2019-03-22T11:32:12.779Z,43.30
2019-03-22T11:34:39.258Z,46.10
2019-03-22T11:37:07.850Z,44.23
2019-03-22T11:39:35.779Z,49.60
2019-03-22T11:42:03.561Z,43.50
2019-03-22T11:44:31.493Z,49.23
2019-03-22T11:46:59.351Z,43.97
2019-03-22T11:49:27.160Z,43.07
2019-03-22T11:51:55.008Z,43.70
2019-03-22T11:54:22.841Z,41.47
2019-03-22T11:56:50.645Z,46.50
2019-03-22T11:59:18.446Z,42.87
2019-03-22T12:01:46.249Z,41.63
2019-03-22T12:04:16.813Z,43.33
2019-03-22T12:06:44.635Z,44.10
2019-03-22T12:09:12.388Z,43.00
2019-03-22T12:11:42.083Z,43.10
2019-03-22T12:14:09.922Z,42.80
2019-03-22T12:16:37.780Z,42.63
2019-03-22T12:19:05.710Z,43.43
2019-03-22T12:21:33.462Z,38.83
2019-03-22T12:24:01.314Z,41.73
2019-03-22T12:26:29.199Z,41.13
2019-03-22T12:28:57.029Z,43.17
2019-03-22T12:31:24.807Z,42.63
2019-03-22T12:33:52.616Z,39.63
2019-03-22T12:36:20.427Z,39.97
2019-03-22T12:38:48.202Z,39.60
2019-03-22T12:41:16.019Z,39.20
2019-03-22T12:43:43.826Z,40.40
2019-03-22T12:46:11.596Z,36.83
2019-03-22T12:48:39.389Z,40.67
2019-03-22T12:51:07.267Z,37.97
2019-03-22T12:53:35.098Z,38.57
2019-03-22T12:56:03.224Z,37.43
2019-03-22T12:58:31.037Z,36.37
2019-03-22T13:00:59.140Z,37.23
2019-03-22T13:03:26.998Z,36.97
2019-03-22T13:05:54.808Z,34.03
2019-03-22T13:08:22.580Z,34.17
2019-03-22T13:10:50.402Z,34.50
2019-03-22T13:13:18.200Z,31.97
2019-03-22T13:15:46.001Z,34.57
2019-03-22T13:18:13.860Z,34.53
2019-03-22T13:20:41.698Z,34.77
2019-03-22T13:23:09.469Z,37.03
2019-03-22T13:25:37.327Z,34.10
2019-03-22T13:28:05.091Z,33.07
2019-03-22T13:30:34.539Z,37.20
2019-03-22T13:33:02.669Z,34.87
2019-03-22T13:35:30.525Z,36.40
2019-03-22T13:37:58.321Z,34.23
2019-03-22T13:40:26.138Z,34.33
2019-03-22T13:42:54.047Z,32.57
2019-03-22T13:45:21.933Z,38.03
2019-03-22T13:47:49.786Z,35.23
2019-03-22T13:50:17.573Z,31.93
2019-03-22T13:52:45.395Z,31.73
2019-03-22T13:55:13.306Z,29.50
2019-03-22T13:57:41.118Z,30.37
2019-03-22T14:00:09.128Z,31.90
2019-03-22T14:02:37.610Z,33.87
2019-03-22T14:05:06.144Z,30.63
2019-03-22T14:07:33.896Z,29.60
2019-03-22T14:10:02.039Z,30.77
2019-03-22T14:12:37.070Z,31.93
2019-03-22T14:14:59.794Z,31.70
2019-03-22T14:17:27.726Z,31.83
2019-03-22T14:19:55.578Z,29.50
2019-03-22T14:22:23.395Z,32.10
2019-03-22T14:24:51.218Z,31.83
2019-03-22T14:27:19.024Z,28.37
2019-03-22T14:29:46.843Z,28.00
2019-03-22T14:32:14.601Z,28.97
2019-03-22T14:34:42.546Z,25.13
2019-03-22T14:37:10.362Z,26.83
2019-03-22T14:39:38.341Z,27.33
2019-03-22T14:42:06.347Z,35.47
2019-03-22T14:44:34.245Z,29.73
2019-03-22T14:47:02.111Z,24.93
2019-03-22T14:49:29.951Z,27.80
2019-03-22T14:51:57.807Z,26.70
2019-03-22T14:54:25.569Z,30.17
2019-03-22T14:56:53.453Z,29.77
2019-03-22T14:59:22.209Z,28.40
2019-03-22T15:01:50.080Z,28.90
2019-03-22T15:04:17.879Z,26.27
2019-03-22T15:06:45.743Z,27.87
2019-03-22T15:09:13.551Z,24.90
2019-03-22T15:11:41.365Z,26.57
2019-03-22T15:14:19.557Z,26.63
2019-03-22T15:17:06.911Z,22.77
2019-03-22T15:20:09.262Z,24.13
2019-03-22T15:23:10.693Z,20.77
2019-03-22T15:25:58.040Z,22.20
2019-03-22T15:28:49.914Z,24.17
2019-03-22T15:31:45.321Z,23.80
2019-03-22T15:34:30.284Z,21.93
2019-03-22T15:40:05.004Z,22.77
2019-03-22T15:42:32.847Z,24.37
2019-03-22T15:45:00.854Z,23.33
2019-03-22T15:47:28.696Z,23.73
2019-03-22T15:49:56.504Z,23.43
2019-03-22T15:52:24.296Z,25.43
2019-03-22T15:54:52.115Z,24.67
2019-03-22T15:57:19.917Z,22.27
2019-03-22T15:59:47.735Z,23.63
2019-03-22T16:02:15.625Z,23.83
2019-03-22T16:04:43.471Z,25.67
2019-03-22T16:07:11.337Z,20.03
2019-03-22T16:09:45.281Z,23.27
2019-03-22T16:12:13.078Z,25.63
2019-03-22T16:14:40.893Z,24.47
2019-03-22T16:17:08.689Z,28.10
2019-03-22T16:19:36.568Z,25.50
2019-03-22T16:22:05.538Z,30.63
2019-03-22T16:24:33.360Z,33.73
2019-03-22T16:27:01.146Z,32.63
2019-03-22T16:29:29.025Z,30.10
2019-03-22T16:31:56.878Z,30.10
2019-03-22T16:34:24.831Z,33.77
2019-03-22T16:36:52.620Z,34.77
2019-03-22T16:39:20.417Z,32.37
2019-03-22T16:41:48.220Z,31.17
2019-03-22T16:44:16.052Z,34.33
2019-03-22T16:46:43.875Z,31.27
2019-03-22T16:49:11.800Z,36.87
2019-03-22T16:51:39.651Z,34.53
2019-03-22T16:54:07.489Z,34.50
2019-03-22T16:56:35.351Z,32.83
2019-03-22T16:59:03.226Z,31.73
2019-03-22T17:01:30.999Z,31.47
2019-03-22T17:04:04.435Z,31.33
2019-03-22T17:06:28.976Z,27.73
2019-03-22T17:08:56.780Z,44.97
2019-03-22T17:11:24.649Z,44.93
2019-03-22T17:13:52.439Z,46.90
2019-03-22T17:16:20.264Z,50.33
2019-03-22T17:18:48.271Z,46.17
2019-03-22T17:21:16.233Z,43.13
2019-03-22T17:23:44.048Z,38.13
2019-03-22T17:26:12.126Z,36.47
2019-03-22T17:28:39.953Z,38.47
2019-03-22T17:31:07.784Z,37.43
2019-03-22T17:33:35.602Z,36.17
2019-03-22T17:36:04.063Z,34.53
2019-03-22T17:38:32.201Z,37.10
2019-03-22T17:41:00.074Z,37.47
2019-03-22T17:43:27.941Z,34.10
2019-03-22T17:45:55.807Z,29.23
2019-03-22T17:48:23.658Z,31.30
2019-03-22T17:50:51.479Z,35.57
2019-03-22T17:53:19.325Z,33.83
2019-03-22T17:55:47.165Z,36.77
2019-03-22T17:58:15.023Z,34.93
2019-03-22T18:00:43.134Z,32.53
2019-03-22T18:03:10.956Z,35.23
2019-03-22T18:05:38.783Z,32.23
2019-03-22T18:08:06.594Z,31.73
2019-03-22T18:10:34.442Z,33.70
2019-03-22T18:13:02.276Z,33.20
2019-03-22T18:15:30.176Z,28.20
2019-03-22T18:17:58.023Z,30.33
2019-03-22T18:20:25.881Z,34.67
2019-03-22T18:22:53.759Z,30.17
2019-03-22T18:25:21.586Z,34.73
2019-03-22T18:27:49.429Z,29.97
2019-03-22T18:30:17.383Z,32.33
2019-03-22T18:32:45.284Z,34.97
2019-03-22T18:35:13.291Z,34.23
2019-03-22T18:37:41.123Z,34.03
2019-03-22T18:40:09.319Z,30.97
2019-03-22T18:42:37.283Z,31.70
2019-03-22T18:45:06.616Z,29.63
2019-03-22T18:47:34.413Z,27.90
2019-03-22T18:50:02.255Z,26.47
2019-03-22T18:52:30.083Z,29.87
2019-03-22T18:54:57.865Z,29.77
2019-03-22T18:57:25.668Z,34.80
2019-03-22T18:59:53.490Z,37.53
2019-03-22T19:02:21.400Z,34.93
2019-03-22T19:04:49.261Z,34.80
2019-03-22T19:07:17.079Z,32.67
2019-03-22T19:09:44.910Z,27.83
2019-03-22T19:12:12.705Z,28.27
2019-03-22T19:14:40.593Z,30.13
2019-03-22T19:17:08.384Z,38.93
2019-03-22T19:19:36.210Z,30.97
2019-03-22T19:22:04.050Z,27.17
2019-03-22T19:24:31.900Z,28.23
2019-03-22T19:26:59.810Z,28.73
2019-03-22T19:29:27.607Z,28.63
2019-03-22T19:31:55.427Z,29.33
2019-03-22T19:34:23.273Z,27.37
2019-03-22T19:36:51.181Z,26.47
2019-03-22T19:39:19.051Z,28.37
2019-03-22T19:41:46.884Z,30.23
2019-03-22T19:44:15.572Z,33.40
2019-03-22T19:46:43.888Z,36.17
2019-03-22T19:49:11.861Z,38.07
2019-03-22T19:51:40.586Z,34.27
2019-03-22T19:54:08.673Z,34.03
2019-03-22T19:56:36.569Z,35.27
2019-03-22T19:59:04.360Z,35.43
2019-03-22T20:01:32.223Z,36.67
2019-03-22T20:04:00.061Z,36.47
2019-03-22T20:06:27.878Z,38.30
2019-03-22T20:08:55.807Z,38.47
2019-03-22T20:11:23.754Z,41.23
2019-03-22T20:13:51.622Z,43.63
2019-03-22T20:16:19.625Z,44.53
2019-03-22T20:18:47.474Z,46.97
2019-03-22T20:21:15.264Z,46.20
2019-03-22T20:23:53.078Z,47.67
2019-03-22T20:26:12.936Z,46.63
2019-03-22T20:28:40.768Z,48.43
2019-03-22T20:31:08.590Z,49.30
2019-03-22T20:33:39.275Z,46.43
2019-03-22T20:36:07.107Z,52.50
2019-03-22T20:38:34.902Z,63.43
2019-03-22T20:41:02.728Z,48.33
2019-03-22T20:43:33.173Z,50.03
2019-03-22T20:46:01.072Z,48.90
2019-03-22T20:48:28.917Z,51.57
2019-03-22T20:50:56.806Z,51.00
2019-03-22T20:53:24.692Z,51.93
2019-03-22T20:55:52.504Z,52.27
2019-03-22T20:58:20.354Z,49.23
2019-03-22T21:00:48.150Z,46.20
2019-03-22T21:03:15.991Z,44.53
2019-03-22T21:05:43.804Z,46.70
2019-03-22T21:08:11.749Z,43.33
2019-03-22T21:10:39.532Z,39.97
2019-03-22T21:13:07.309Z,38.57
2019-03-22T21:15:35.280Z,35.93
2019-03-22T21:18:03.171Z,36.77
2019-03-22T21:20:31.007Z,37.73
2019-03-22T21:22:58.885Z,39.73
2019-03-22T21:25:26.630Z,39.00
2019-03-22T21:27:54.482Z,45.83
2019-03-22T21:30:22.599Z,47.63
2019-03-22T21:32:50.503Z,47.93
2019-03-22T21:35:22.853Z,46.80
2019-03-22T21:37:48.304Z,45.00
2019-03-22T21:40:16.112Z,41.17
2019-03-22T21:42:46.294Z,39.93
2019-03-22T21:45:14.257Z,41.07
2019-03-22T21:47:42.039Z,37.93
2019-03-22T21:50:10.091Z,38.60
2019-03-22T21:52:40.725Z,39.93
2019-03-22T21:55:12.073Z,37.87
2019-03-22T21:57:39.823Z,36.73
2019-03-22T22:00:08.641Z,37.03
2019-03-22T22:02:39.282Z,34.70
2019-03-22T22:05:07.209Z,36.70
2019-03-22T22:07:34.991Z,36.53
2019-03-22T22:10:03.019Z,39.40
2019-03-22T22:12:30.810Z,38.10
2019-03-22T22:14:58.598Z,36.80
2019-03-22T22:17:26.459Z,38.97
2019-03-22T22:19:54.266Z,37.73
2019-03-22T22:22:22.193Z,39.27
2019-03-22T22:24:50.104Z,34.20
2019-03-22T22:27:17.893Z,38.67
2019-03-22T22:29:47.498Z,37.83
2019-03-22T22:32:15.411Z,38.13
2019-03-22T22:34:43.227Z,37.83
2019-03-22T22:37:11.072Z,37.27
2019-03-22T22:39:38.851Z,38.50
2019-03-22T22:42:06.723Z,37.67
2019-03-22T22:44:34.538Z,39.20
2019-03-22T22:47:02.355Z,38.63
2019-03-22T22:49:30.173Z,36.43
2019-03-22T22:51:57.988Z,36.83
2019-03-22T22:54:26.050Z,36.47
2019-03-22T22:56:53.864Z,37.53
2019-03-22T22:59:21.702Z,39.23
2019-03-22T23:01:49.534Z,37.37
2019-03-22T23:04:17.402Z,36.87
2019-03-22T23:06:45.244Z,35.10
2019-03-22T23:09:13.073Z,36.50
2019-03-22T23:11:40.867Z,38.67
2019-03-22T23:14:08.681Z,37.83
2019-03-22T23:16:36.677Z,35.07
2019-03-22T23:19:04.503Z,32.20
2019-03-22T23:21:32.330Z,31.10
2019-03-22T23:24:00.246Z,31.67
2019-03-22T23:26:28.056Z,31.47
2019-03-22T23:28:55.876Z,33.53
2019-03-22T23:31:23.776Z,32.97
2019-03-22T23:33:51.581Z,33.47
2019-03-22T23:36:20.452Z,30.90
2019-03-22T23:38:48.591Z,31.57
2019-03-22T23:41:16.476Z,31.37
2019-03-22T23:43:44.274Z,31.73
2019-03-22T23:46:12.075Z,32.33
2019-03-22T23:48:40.076Z,29.73
2019-03-22T23:51:07.948Z,31.40
2019-03-22T23:53:35.777Z,32.03
2019-03-22T23:56:03.632Z,30.50
2019-03-22T23:58:31.492Z,32.23
